createdAt,value
2023-04-12T00:00:12.207Z,3.233948
2023-04-12T00:03:37.432Z,3.173523
2023-04-12T00:07:02.612Z,3.113098
2023-04-12T00:10:27.894Z,3.113098
2023-04-12T00:13:53.099Z,3.13324
2023-04-12T00:17:18.333Z,3.143311
2023-04-12T00:20:43.507Z,3.113098
2023-04-12T00:24:08.712Z,3.103027
2023-04-12T00:27:34.000Z,3.183594
2023-04-12T00:30:59.255Z,3.233948
2023-04-12T00:34:24.444Z,3.294373
2023-04-12T00:37:49.657Z,3.213806
2023-04-12T00:41:14.901Z,3.244019
2023-04-12T00:44:40.123Z,3.203735
2023-04-12T00:48:05.486Z,3.153381
2023-04-12T00:51:30.605Z,3.082886
2023-04-12T00:54:55.822Z,3.052673
2023-04-12T00:58:21.028Z,3.022461
2023-04-12T01:01:46.284Z,3.103027
2023-04-12T01:05:11.487Z,3.062744
2023-04-12T01:08:36.696Z,3.022461
2023-04-12T01:12:01.989Z,3.062744
2023-04-12T01:15:27.162Z,3.082886
2023-04-12T01:18:52.347Z,3.052673
2023-04-12T01:22:17.637Z,3.062744
2023-04-12T01:25:42.818Z,3.082886
2023-04-12T01:29:08.012Z,3.113098
2023-04-12T01:32:33.265Z,3.062744
2023-04-12T01:35:58.534Z,3.13324
2023-04-12T01:39:23.704Z,3.103027
2023-04-12T01:42:48.890Z,3.082886
2023-04-12T01:46:14.127Z,2.992249
2023-04-12T01:49:39.325Z,3.002319
2023-04-12T01:53:04.532Z,3.153381
2023-04-12T01:56:29.752Z,3.213806
2023-04-12T01:59:54.946Z,3.143311
2023-04-12T02:03:20.240Z,3.032532
2023-04-12T02:06:45.397Z,2.962036
2023-04-12T02:10:10.615Z,2.931824
2023-04-12T02:13:35.856Z,3.002319
2023-04-12T02:17:01.132Z,3.022461
2023-04-12T02:20:26.240Z,3.032532
2023-04-12T02:23:51.478Z,3.002319
2023-04-12T02:27:16.700Z,2.962036
2023-04-12T02:30:41.954Z,3.022461
2023-04-12T02:34:07.092Z,3.103027
2023-04-12T02:37:32.313Z,3.153381
2023-04-12T02:40:57.521Z,3.13324
2023-04-12T02:44:22.718Z,3.153381
2023-04-12T02:47:47.994Z,3.244019
2023-04-12T02:51:13.169Z,3.334656
2023-04-12T02:54:38.399Z,3.334656
2023-04-12T02:58:03.579Z,3.354797
2023-04-12T03:01:28.805Z,3.38501
2023-04-12T03:04:54.043Z,3.415222
2023-04-12T03:08:19.199Z,3.364868
2023-04-12T03:11:44.411Z,3.364868
2023-04-12T03:15:09.612Z,3.364868
2023-04-12T03:18:34.821Z,3.284302
2023-04-12T03:22:00.072Z,3.284302
2023-04-12T03:25:25.219Z,3.213806
2023-04-12T03:28:50.453Z,3.244019
2023-04-12T03:32:15.656Z,3.294373
2023-04-12T03:35:40.851Z,3.334656
2023-04-12T03:39:06.441Z,3.38501
2023-04-12T03:42:33.358Z,3.475647
2023-04-12T03:45:56.879Z,3.495789
2023-04-12T03:49:22.074Z,3.495789
2023-04-12T03:52:47.293Z,3.505859
2023-04-12T03:56:12.553Z,3.505859
2023-04-12T03:59:37.726Z,3.536072
2023-04-12T04:03:03.145Z,3.51593
2023-04-12T04:06:28.138Z,3.576355
2023-04-12T04:09:53.368Z,3.596497
2023-04-12T04:13:18.587Z,3.606567
2023-04-12T04:16:43.770Z,3.677063
2023-04-12T04:20:08.970Z,3.717346
2023-04-12T04:23:34.185Z,3.747559
2023-04-12T04:26:59.492Z,3.777771
2023-04-12T04:30:24.724Z,3.747559
2023-04-12T04:33:49.924Z,3.687134
2023-04-12T04:37:15.215Z,3.656921
2023-04-12T04:40:40.429Z,3.606567
2023-04-12T04:44:05.654Z,3.566284
2023-04-12T04:47:30.987Z,3.646851
2023-04-12T04:50:56.080Z,3.757629
2023-04-12T04:54:21.337Z,3.687134
2023-04-12T04:57:46.604Z,3.677063
2023-04-12T05:01:11.801Z,3.717346
2023-04-12T05:04:37.085Z,3.797913
2023-04-12T05:08:02.246Z,3.898621
2023-04-12T05:11:27.454Z,3.868408
2023-04-12T05:14:52.705Z,3.868408
2023-04-12T05:18:17.919Z,3.868408
2023-04-12T05:21:43.155Z,3.828125
2023-04-12T05:25:08.331Z,3.828125
2023-04-12T05:28:33.524Z,3.908691
2023-04-12T05:31:58.727Z,3.979187
2023-04-12T05:35:23.994Z,4.079895
2023-04-12T05:38:49.215Z,4.120178
2023-04-12T05:42:14.422Z,4.150391
2023-04-12T05:45:39.616Z,4.261169
2023-04-12T05:49:04.948Z,4.371948
2023-04-12T05:52:30.204Z,4.502869
2023-04-12T05:55:55.411Z,4.664001
2023-04-12T05:59:20.606Z,4.724426
2023-04-12T06:02:45.985Z,4.855347
2023-04-12T06:06:11.028Z,4.966125
2023-04-12T06:09:36.210Z,5.117188
2023-04-12T06:13:01.437Z,5.308533
2023-04-12T06:16:26.638Z,5.53009
2023-04-12T06:19:51.838Z,5.600586
2023-04-12T06:23:17.059Z,5.721436
2023-04-12T06:26:42.269Z,5.78186
2023-04-12T06:30:07.587Z,5.90271
2023-04-12T06:33:32.691Z,6.063843
2023-04-12T06:36:57.879Z,6.224976
2023-04-12T06:40:23.078Z,6.396179
2023-04-12T06:43:48.288Z,6.577454
2023-04-12T06:47:13.566Z,6.708374
2023-04-12T06:50:38.730Z,6.879578
2023-04-12T06:54:04.006Z,6.940002
2023-04-12T06:57:29.224Z,6.950073
2023-04-12T07:00:54.438Z,6.799011
2023-04-12T07:04:19.802Z,6.768799
2023-04-12T07:07:44.876Z,6.708374
2023-04-12T07:11:20.500Z,6.758728
2023-04-12T07:14:35.281Z,6.839294
2023-04-12T07:18:00.529Z,6.90979
2023-04-12T07:21:25.757Z,6.990356
2023-04-12T07:24:50.936Z,7.060852
2023-04-12T07:28:16.149Z,7.101135
2023-04-12T07:31:41.371Z,7.03064
2023-04-12T07:35:06.561Z,6.990356
2023-04-12T07:38:31.799Z,7.020569
2023-04-12T07:41:56.964Z,7.060852
2023-04-12T07:45:22.124Z,7.020569
2023-04-12T07:48:47.356Z,6.970215
2023-04-12T07:52:13.248Z,7.091064
2023-04-12T07:55:38.425Z,7.121277
2023-04-12T07:59:05.083Z,7.211914
2023-04-12T08:02:30.562Z,7.322693
2023-04-12T08:05:55.730Z,7.322693
2023-04-12T08:09:20.932Z,7.352905
2023-04-12T08:12:46.152Z,7.433472
2023-04-12T08:16:11.336Z,7.453613
2023-04-12T08:19:36.534Z,7.433472
2023-04-12T08:23:01.798Z,7.463684
2023-04-12T08:26:26.958Z,7.433472
2023-04-12T08:29:52.201Z,7.393188
2023-04-12T08:33:17.370Z,7.352905
2023-04-12T08:36:42.584Z,7.28241
2023-04-12T08:40:07.844Z,7.302551
2023-04-12T08:43:33.104Z,7.272339
2023-04-12T08:46:58.564Z,7.151489
2023-04-12T08:50:23.688Z,7.131348
2023-04-12T08:53:48.885Z,7.242126
2023-04-12T08:57:14.172Z,7.342834
2023-04-12T09:00:39.361Z,7.373047
2023-04-12T09:04:04.914Z,7.322693
2023-04-12T09:07:29.846Z,7.373047
2023-04-12T09:10:55.102Z,7.463684
2023-04-12T09:14:20.439Z,7.53418
2023-04-12T09:17:45.724Z,7.53418
2023-04-12T09:21:11.008Z,7.604675
2023-04-12T09:24:36.143Z,7.604675
2023-04-12T09:28:01.435Z,7.554321
2023-04-12T09:31:26.809Z,7.453613
2023-04-12T09:34:51.931Z,7.373047
2023-04-12T09:38:17.222Z,7.423401
2023-04-12T09:41:42.456Z,7.423401
2023-04-12T09:45:07.770Z,7.53418
2023-04-12T09:48:33.027Z,7.423401
2023-04-12T09:51:59.501Z,7.312622
2023-04-12T09:55:23.602Z,7.312622
2023-04-12T09:58:48.791Z,7.312622
2023-04-12T10:02:14.072Z,7.312622
2023-04-12T10:05:39.458Z,7.232056
2023-04-12T10:09:04.517Z,7.242126
2023-04-12T10:12:29.708Z,7.232056
2023-04-12T10:15:55.018Z,7.28241
2023-04-12T10:19:20.219Z,7.302551
2023-04-12T10:22:45.504Z,7.342834
2023-04-12T10:26:10.767Z,7.16156
2023-04-12T10:29:36.167Z,7.050781
2023-04-12T10:33:01.311Z,7.060852
2023-04-12T10:36:26.567Z,7.050781
2023-04-12T10:39:51.814Z,7.091064
2023-04-12T10:43:17.028Z,7.101135
2023-04-12T10:46:42.328Z,7.070923
2023-04-12T10:50:07.495Z,6.990356
2023-04-12T10:53:32.732Z,7.050781
2023-04-12T10:56:58.033Z,7.211914
2023-04-12T11:00:23.335Z,7.252197
2023-04-12T11:03:48.755Z,7.272339
2023-04-12T11:07:13.752Z,7.322693
2023-04-12T11:10:39.061Z,7.302551
2023-04-12T11:14:04.313Z,7.232056
2023-04-12T11:17:29.616Z,7.352905
2023-04-12T11:20:54.864Z,7.352905
2023-04-12T11:24:20.081Z,7.393188
2023-04-12T11:27:45.258Z,7.373047
2023-04-12T11:31:10.520Z,7.453613
2023-04-12T11:34:35.719Z,7.604675
2023-04-12T11:38:01.036Z,7.614746
2023-04-12T11:41:26.254Z,7.584534
2023-04-12T11:44:57.973Z,7.705383
2023-04-12T11:48:16.704Z,7.765808
2023-04-12T11:51:41.906Z,7.765808
2023-04-12T11:55:07.145Z,7.886658
2023-04-12T11:58:32.329Z,7.967224
2023-04-12T12:01:57.532Z,8.118286
2023-04-12T12:05:22.974Z,8.259277
2023-04-12T12:08:47.922Z,8.28949
2023-04-12T12:12:13.197Z,8.359985
2023-04-12T12:15:38.403Z,8.370056
2023-04-12T12:19:03.589Z,8.561401
2023-04-12T12:22:28.789Z,8.702393
2023-04-12T12:26:00.171Z,8.742676
2023-04-12T12:29:19.243Z,8.662109
2023-04-12T12:32:44.429Z,8.702393
2023-04-12T12:36:09.780Z,8.803101
2023-04-12T12:39:34.926Z,8.863525
2023-04-12T12:43:00.150Z,8.944092
2023-04-12T12:46:27.825Z,8.873596
2023-04-12T12:49:50.636Z,8.79303
2023-04-12T12:53:15.863Z,8.631897
2023-04-12T12:56:41.095Z,8.732605
2023-04-12T13:00:06.336Z,8.742676
2023-04-12T13:03:31.686Z,8.833313
2023-04-12T13:06:56.868Z,8.964233
2023-04-12T13:10:22.125Z,9.105225
2023-04-12T13:13:47.405Z,9.17572
2023-04-12T13:17:12.657Z,9.145508
2023-04-12T13:20:37.965Z,9.165649
2023-04-12T13:24:03.254Z,9.135437
2023-04-12T13:27:28.534Z,9.075012
2023-04-12T13:30:53.858Z,9.145508
2023-04-12T13:34:19.081Z,9.054871
2023-04-12T13:37:44.400Z,8.954163
2023-04-12T13:41:09.638Z,8.843384
2023-04-12T13:44:34.910Z,8.803101
2023-04-12T13:48:00.191Z,8.702393
2023-04-12T13:51:25.353Z,8.591614
2023-04-12T13:54:50.638Z,8.611755
2023-04-12T13:58:15.869Z,8.430481
2023-04-12T14:01:41.195Z,8.299561
2023-04-12T14:05:06.430Z,8.299561
2023-04-12T14:08:31.604Z,8.329773
2023-04-12T14:11:56.844Z,8.279419
2023-04-12T14:15:22.041Z,8.198853
2023-04-12T15:54:29.159Z,9.105225
2023-04-12T15:57:54.420Z,9.014587
2023-04-12T16:01:19.753Z,9.0448
2023-04-12T16:04:45.068Z,9.054871
2023-04-12T16:08:10.196Z,9.095154
2023-04-12T16:11:35.436Z,9.105225
2023-04-12T16:15:00.644Z,9.135437
2023-04-12T16:18:25.875Z,9.165649
2023-04-12T16:21:51.121Z,9.17572
2023-04-12T16:25:16.364Z,9.195862
2023-04-12T16:28:41.614Z,9.195862
2023-04-12T16:32:06.877Z,9.195862
2023-04-12T16:35:32.113Z,9.276428
2023-04-12T16:38:57.596Z,9.316711
2023-04-12T16:42:22.672Z,9.346924
2023-04-12T16:45:47.917Z,9.387207
2023-04-12T16:49:13.148Z,9.42749
2023-04-12T16:52:38.353Z,9.397278
2023-04-12T16:56:03.607Z,9.417419
2023-04-12T16:59:28.853Z,9.42749
2023-04-12T17:03:21.033Z,9.417419
2023-04-12T17:06:46.214Z,9.346924
2023-04-12T17:10:11.434Z,9.326782
2023-04-12T17:13:36.624Z,9.276428
2023-04-12T17:17:02.934Z,9.226074
2023-04-12T17:20:27.059Z,9.205933
2023-04-12T17:23:52.275Z,9.236145
2023-04-12T17:27:17.578Z,9.226074
2023-04-12T17:30:42.831Z,9.276428
2023-04-12T17:34:08.069Z,9.306641
2023-04-12T17:37:33.372Z,9.276428
2023-04-12T17:40:58.548Z,9.276428
2023-04-12T17:44:23.786Z,9.256287
2023-04-12T17:47:49.219Z,9.226074
2023-04-12T17:51:14.419Z,9.276428
2023-04-12T17:54:39.687Z,9.226074
2023-04-12T17:58:04.887Z,9.236145
2023-04-12T18:01:30.101Z,9.205933
2023-04-12T18:04:55.354Z,9.256287
2023-04-12T18:08:20.547Z,9.316711
2023-04-12T18:11:45.823Z,9.286499
2023-04-12T18:15:10.993Z,9.316711
2023-04-12T18:18:36.236Z,9.256287
2023-04-12T18:22:01.459Z,9.205933
2023-04-12T18:25:26.693Z,9.205933
2023-04-12T18:28:51.947Z,9.236145
2023-04-12T18:32:17.167Z,9.236145
2023-04-12T18:35:42.365Z,9.195862
2023-04-12T18:39:07.619Z,9.226074
2023-04-12T18:42:32.769Z,9.165649
2023-04-12T18:45:57.994Z,9.226074
2023-04-12T18:49:23.277Z,9.226074
2023-04-12T18:52:48.484Z,9.276428
2023-04-12T18:56:13.729Z,9.236145
2023-04-12T18:59:39.001Z,9.306641
2023-04-12T19:03:04.238Z,9.326782
2023-04-12T19:06:29.330Z,9.356995
2023-04-12T19:09:54.570Z,9.356995
2023-04-12T19:13:19.810Z,9.316711
2023-04-12T19:16:45.070Z,9.256287
2023-04-12T19:20:10.327Z,9.17572
2023-04-12T19:23:35.534Z,9.105225
2023-04-12T19:27:00.795Z,8.994446
2023-04-12T19:30:25.983Z,8.92395
2023-04-12T19:33:51.228Z,8.863525
2023-04-12T19:37:16.495Z,8.79303
2023-04-12T19:40:41.715Z,8.803101
2023-04-12T19:44:06.935Z,8.79303
2023-04-12T19:47:32.242Z,8.772888
2023-04-12T19:50:57.478Z,8.813171
2023-04-12T19:54:22.656Z,8.944092
2023-04-12T19:57:47.783Z,8.954163
2023-04-12T20:01:12.985Z,8.964233
2023-04-12T20:04:38.191Z,8.984375
2023-04-12T20:08:03.322Z,8.984375
2023-04-12T20:11:28.543Z,8.994446
2023-04-12T20:14:53.639Z,8.893738
2023-04-12T20:18:18.838Z,8.92395
2023-04-12T20:21:43.994Z,8.954163
2023-04-12T20:25:09.197Z,8.964233
2023-04-12T20:28:34.496Z,9.014587
2023-04-12T20:31:59.565Z,9.054871
2023-04-12T20:35:24.747Z,9.125366
2023-04-12T20:38:49.902Z,9.145508
2023-04-12T20:42:15.061Z,9.145508
2023-04-12T20:45:40.262Z,9.125366
2023-04-12T20:49:05.395Z,9.095154
2023-04-12T20:52:30.570Z,8.994446
2023-04-12T20:55:55.729Z,8.964233
2023-04-12T20:59:20.864Z,8.964233
2023-04-12T21:02:46.290Z,8.92395
2023-04-12T21:06:11.226Z,8.873596
2023-04-12T21:09:36.403Z,8.843384
2023-04-12T21:13:01.611Z,8.79303
2023-04-12T21:16:26.814Z,8.762817
2023-04-12T21:19:51.974Z,8.712463
2023-04-12T21:23:17.134Z,8.762817
2023-04-12T21:26:42.271Z,8.611755
2023-04-12T21:30:07.475Z,8.551331
2023-04-12T21:33:32.658Z,8.500977
2023-04-12T21:36:57.871Z,8.500977
2023-04-12T21:40:23.018Z,8.440552
2023-04-12T21:43:48.252Z,8.410339
2023-04-12T21:47:13.397Z,8.400269
2023-04-12T21:50:38.571Z,8.359985
2023-04-12T21:54:03.774Z,8.28949
2023-04-12T21:57:28.919Z,8.259277
2023-04-12T22:00:54.111Z,8.229065
2023-04-12T22:04:19.306Z,8.148499
2023-04-12T22:07:44.487Z,8.098145
2023-04-12T22:11:09.695Z,8.098145
2023-04-12T22:14:34.874Z,8.067932
2023-04-12T22:18:00.173Z,8.098145
2023-04-12T22:21:25.244Z,8.098145
2023-04-12T22:24:50.441Z,8.188782
2023-04-12T22:28:15.660Z,8.249207
2023-04-12T22:31:40.815Z,8.229065
2023-04-12T22:35:08.626Z,8.078003
2023-04-12T22:38:31.213Z,7.78595
2023-04-12T22:41:56.374Z,7.524109
2023-04-12T22:45:21.632Z,7.524109
2023-04-12T22:48:46.735Z,7.524109
2023-04-12T22:52:11.921Z,7.503967
2023-04-12T22:55:37.105Z,7.53418
2023-04-12T22:59:02.295Z,7.524109
2023-04-12T23:02:27.555Z,7.493896
2023-04-12T23:05:52.637Z,7.524109
2023-04-12T23:09:17.815Z,7.524109
2023-04-12T23:12:42.979Z,7.463684
2023-04-12T23:16:08.196Z,7.493896
2023-04-12T23:19:33.362Z,7.503967
2023-04-12T23:22:58.669Z,7.483826
2023-04-12T23:26:23.674Z,7.483826
2023-04-12T23:29:48.850Z,7.463684
2023-04-12T23:33:14.028Z,7.453613
2023-04-12T23:36:39.241Z,7.423401
2023-04-12T23:40:04.404Z,7.373047
2023-04-12T23:43:29.582Z,7.342834
2023-04-12T23:46:54.808Z,7.312622
2023-04-12T23:50:19.936Z,7.28241
2023-04-12T23:53:45.128Z,7.28241
2023-04-12T23:57:10.297Z,7.252197
